createdAt,value
2023-01-22T00:01:21.379Z,96102.88
2023-01-22T00:03:49.398Z,96092.81
2023-01-22T00:06:16.189Z,96102.75
2023-01-22T00:08:42.741Z,96089.53
2023-01-22T00:11:09.804Z,96092.56
2023-01-22T00:13:36.309Z,96096.38
2023-01-22T00:16:02.914Z,96098.03
2023-01-22T00:18:29.376Z,96098.56
2023-01-22T00:20:56.004Z,96094.69
2023-01-22T00:23:23.070Z,96093.19
2023-01-22T00:25:49.501Z,96102.00
2023-01-22T00:28:16.936Z,96103.09
2023-01-22T00:30:43.644Z,96103.78
2023-01-22T00:33:10.117Z,96105.78
2023-01-22T00:35:36.867Z,96106.03
2023-01-22T00:38:03.886Z,96119.06
2023-01-22T00:40:30.495Z,96114.91
2023-01-22T00:42:56.996Z,96120.13
2023-01-22T00:45:23.492Z,96124.44
2023-01-22T00:47:50.962Z,96131.69
2023-01-22T00:50:17.780Z,96135.63
2023-01-22T00:52:44.351Z,96134.16
2023-01-22T00:55:10.821Z,96134.28
2023-01-22T00:57:37.455Z,96135.13
2023-01-22T01:00:04.441Z,96135.91
2023-01-22T01:02:30.887Z,96140.91
2023-01-22T01:04:57.379Z,96144.34
2023-01-22T01:07:23.881Z,96135.84
2023-01-22T01:09:50.607Z,96140.00
2023-01-22T01:12:17.071Z,96143.59
2023-01-22T01:14:43.517Z,96146.91
2023-01-22T01:17:09.995Z,96145.22
2023-01-22T01:19:36.532Z,96137.69
2023-01-22T01:22:02.974Z,96139.19
2023-01-22T01:24:29.445Z,96132.19
2023-01-22T01:26:55.865Z,96136.84
2023-01-22T01:29:22.356Z,96143.69
2023-01-22T01:31:53.266Z,96137.84
2023-01-22T01:34:19.779Z,96138.00
2023-01-22T01:36:49.275Z,96142.88
2023-01-22T01:39:16.435Z,96145.25
2023-01-22T01:41:42.892Z,96144.63
2023-01-22T01:44:14.114Z,96140.63
2023-01-22T01:46:43.061Z,96147.03
2023-01-22T01:49:16.889Z,96144.69
2023-01-22T01:51:43.464Z,96146.03
2023-01-22T01:54:11.499Z,96144.53
2023-01-22T01:56:39.961Z,96159.38
2023-01-22T01:59:08.795Z,96164.88
2023-01-22T02:01:35.759Z,96171.06
2023-01-22T02:04:02.601Z,96169.13
2023-01-22T02:06:29.354Z,96162.03
2023-01-22T02:08:56.237Z,96159.81
2023-01-22T02:11:23.080Z,96159.66
2023-01-22T02:13:52.714Z,96152.13
2023-01-22T02:16:19.263Z,96153.84
2023-01-22T02:18:45.971Z,96154.00
2023-01-22T02:21:31.392Z,96153.69
2023-01-22T02:23:57.906Z,96150.56
2023-01-22T02:26:24.609Z,96153.38
2023-01-22T02:28:51.062Z,96145.44
2023-01-22T02:31:17.564Z,96153.53
2023-01-22T02:33:44.086Z,96154.06
2023-01-22T02:36:10.560Z,96163.00
2023-01-22T02:38:36.991Z,96154.91
2023-01-22T02:41:03.438Z,96153.81
2023-01-22T02:43:29.859Z,96153.81
2023-01-22T02:45:56.543Z,96152.00
2023-01-22T02:48:23.049Z,96151.31
2023-01-22T02:50:49.478Z,96158.03
2023-01-22T02:53:15.934Z,96159.91
2023-01-22T02:55:44.991Z,96162.50
2023-01-22T02:58:11.532Z,96153.69
2023-01-22T03:00:37.997Z,96157.53
2023-01-22T03:03:07.897Z,96167.53
2023-01-22T03:05:34.981Z,96160.91
2023-01-22T03:08:01.607Z,96165.84
2023-01-22T03:10:28.053Z,96162.06
2023-01-22T03:13:12.949Z,96161.69
2023-01-22T03:15:58.885Z,96154.84
2023-01-22T03:18:43.817Z,96156.66
2023-01-22T03:21:17.035Z,96153.66
2023-01-22T03:23:45.219Z,96151.72
2023-01-22T03:26:11.698Z,96154.44
2023-01-22T03:28:38.390Z,96161.28
2023-01-22T03:31:05.253Z,96160.34
2023-01-22T03:33:32.263Z,96163.34
2023-01-22T03:36:06.250Z,96169.78
2023-01-22T03:38:32.741Z,96178.75
2023-01-22T03:41:03.488Z,96168.31
2023-01-22T03:43:30.382Z,96166.78
2023-01-22T03:46:01.088Z,96161.88
2023-01-22T03:48:27.610Z,96163.13
2023-01-22T03:50:54.072Z,96163.81
2023-01-22T03:53:20.571Z,96158.88
2023-01-22T03:55:47.017Z,96162.72
2023-01-22T03:58:13.445Z,96161.34
2023-01-22T04:00:39.934Z,96158.59
2023-01-22T04:03:06.375Z,96160.81
2023-01-22T04:05:32.859Z,96160.31
2023-01-22T04:07:59.292Z,96168.22
2023-01-22T04:10:25.748Z,96164.09
2023-01-22T04:12:52.531Z,96155.81
2023-01-22T04:15:18.985Z,96160.34
2023-01-22T04:17:45.454Z,96158.00
2023-01-22T04:20:11.968Z,96162.66
2023-01-22T04:22:38.441Z,96153.91
2023-01-22T04:25:05.121Z,96164.63
2023-01-22T04:27:31.573Z,96157.72
2023-01-22T04:29:58.149Z,96156.84
2023-01-22T04:32:24.565Z,96156.84
2023-01-22T04:34:51.008Z,96165.06
2023-01-22T04:37:17.408Z,96167.09
2023-01-22T04:39:43.846Z,96162.28
2023-01-22T04:42:11.450Z,96161.16
2023-01-22T04:44:38.138Z,96156.59
2023-01-22T04:47:04.640Z,96163.59
2023-01-22T04:49:31.136Z,96161.22
2023-01-22T04:51:58.228Z,96169.50
2023-01-22T04:54:24.702Z,96180.75
2023-01-22T04:56:51.397Z,96187.19
2023-01-22T04:59:17.871Z,96185.38
2023-01-22T05:01:44.532Z,96193.59
2023-01-22T05:04:11.136Z,96195.59
2023-01-22T05:06:37.647Z,96202.19
2023-01-22T05:09:04.139Z,96208.34
2023-01-22T05:11:30.561Z,96207.72
2023-01-22T05:13:57.169Z,96196.72
2023-01-22T05:16:23.708Z,96202.81
2023-01-22T05:18:50.130Z,96208.88
2023-01-22T05:21:16.593Z,96217.72
2023-01-22T05:23:43.843Z,96210.16
2023-01-22T05:26:10.441Z,96224.72
2023-01-22T05:28:36.955Z,96231.72
2023-01-22T05:31:03.483Z,96225.56
2023-01-22T05:33:30.200Z,96225.41
2023-01-22T05:36:00.609Z,96222.06
2023-01-22T05:38:28.716Z,96221.06
2023-01-22T05:40:55.142Z,96211.84
2023-01-22T05:43:21.743Z,96224.31
2023-01-22T05:45:48.272Z,96217.16
2023-01-22T05:48:14.685Z,96213.97
2023-01-22T05:50:41.708Z,96207.50
2023-01-22T05:53:08.267Z,96203.78
2023-01-22T05:55:35.047Z,96206.53
2023-01-22T05:58:01.940Z,96201.50
2023-01-22T06:00:28.592Z,96196.81
2023-01-22T06:02:56.808Z,96191.31
2023-01-22T06:05:23.412Z,96207.19
2023-01-22T06:07:49.935Z,96210.88
2023-01-22T06:10:17.521Z,96207.97
2023-01-22T06:12:44.206Z,96208.28
2023-01-22T06:15:11.288Z,96221.03
2023-01-22T06:17:38.053Z,96230.50
2023-01-22T06:20:05.294Z,96224.31
2023-01-22T06:22:31.840Z,96226.25
2023-01-22T06:24:58.278Z,96237.38
2023-01-22T06:27:24.721Z,96249.31
2023-01-22T06:29:51.222Z,96256.03
2023-01-22T06:32:17.644Z,96255.09
2023-01-22T06:34:44.740Z,96270.63
2023-01-22T06:37:11.226Z,96274.53
2023-01-22T06:39:37.639Z,96271.28
2023-01-22T06:42:04.153Z,96274.81
2023-01-22T06:44:30.639Z,96282.50
2023-01-22T06:46:57.116Z,96281.56
2023-01-22T06:49:23.534Z,96284.44
2023-01-22T06:51:50.091Z,96283.88
2023-01-22T06:54:16.569Z,96282.34
2023-01-22T06:56:43.009Z,96274.38
2023-01-22T06:59:09.517Z,96271.38
2023-01-22T07:01:36.180Z,96270.44
2023-01-22T07:04:02.730Z,96276.50
2023-01-22T07:06:29.281Z,96276.81
2023-01-22T07:08:56.968Z,96265.78
2023-01-22T07:11:23.542Z,96274.22
2023-01-22T07:13:49.997Z,96278.63
2023-01-22T07:16:16.518Z,96280.38
2023-01-22T07:18:42.968Z,96282.13
2023-01-22T07:21:10.537Z,96279.09
2023-01-22T07:23:37.016Z,96291.59
2023-01-22T07:26:03.523Z,96297.94
2023-01-22T07:28:29.998Z,96292.84
2023-01-22T07:30:57.108Z,96286.00
2023-01-22T07:33:23.679Z,96289.94
2023-01-22T07:35:54.297Z,96283.50
2023-01-22T07:38:20.736Z,96284.72
2023-01-22T07:40:47.183Z,96284.97
2023-01-22T07:43:15.160Z,96295.84
2023-01-22T07:45:41.640Z,96293.53
2023-01-22T07:48:10.843Z,96296.53
2023-01-22T07:50:40.111Z,96291.41
2023-01-22T07:53:07.331Z,96293.47
2023-01-22T07:55:33.775Z,96302.09
2023-01-22T07:58:01.436Z,96307.19
2023-01-22T08:00:28.044Z,96302.63
2023-01-22T08:02:54.526Z,96304.31
2023-01-22T08:05:23.409Z,96310.19
2023-01-22T08:07:49.901Z,96313.88
2023-01-22T08:10:17.275Z,96330.50
2023-01-22T08:12:46.147Z,96328.72
2023-01-22T08:15:13.684Z,96319.44
2023-01-22T08:17:40.217Z,96323.03
2023-01-22T08:20:07.105Z,96318.38
2023-01-22T08:22:33.592Z,96322.00
2023-01-22T08:25:00.023Z,96330.38
2023-01-22T08:27:26.485Z,96332.41
2023-01-22T08:29:52.926Z,96328.69
2023-01-22T08:32:19.711Z,96325.69
2023-01-22T08:34:46.227Z,96318.84
2023-01-22T08:37:12.669Z,96327.34
2023-01-22T08:39:39.158Z,96327.88
2023-01-22T08:42:05.609Z,96325.16
2023-01-22T08:44:32.028Z,96325.16
2023-01-22T08:46:58.511Z,96326.78
2023-01-22T08:49:25.253Z,96325.94
2023-01-22T08:51:51.793Z,96331.72
2023-01-22T08:54:18.477Z,96326.50
2023-01-22T08:56:44.995Z,96333.09
2023-01-22T08:59:11.484Z,96342.13
2023-01-22T09:01:37.945Z,96340.31
2023-01-22T09:04:05.750Z,96346.69
2023-01-22T09:06:32.874Z,96353.66
2023-01-22T09:08:59.390Z,96347.22
2023-01-22T09:11:25.799Z,96346.03
2023-01-22T09:13:55.043Z,96347.41
2023-01-22T09:16:21.769Z,96351.66
2023-01-22T09:18:48.271Z,96356.47
2023-01-22T09:21:14.755Z,96347.38
2023-01-22T09:23:41.180Z,96347.38
2023-01-22T09:26:07.722Z,96349.97
2023-01-22T09:28:36.105Z,96342.44
2023-01-22T09:31:02.817Z,96335.72
2023-01-22T09:33:29.262Z,96340.66
2023-01-22T09:36:05.859Z,96342.88
2023-01-22T09:38:32.267Z,96349.44
2023-01-22T09:40:59.367Z,96347.50
2023-01-22T09:43:37.752Z,96355.31
2023-01-22T09:46:07.066Z,96358.34
2023-01-22T09:48:36.207Z,96360.94
2023-01-22T09:51:03.298Z,96356.97
2023-01-22T09:53:29.963Z,96353.38
2023-01-22T09:55:57.661Z,96363.56
2023-01-22T09:58:25.255Z,96360.22
2023-01-22T10:01:01.239Z,96353.53
2023-01-22T10:03:39.836Z,96348.16
2023-01-22T10:06:12.205Z,96340.31
2023-01-22T10:08:52.064Z,96345.56
2023-01-22T10:11:18.784Z,96348.44
2023-01-22T10:13:45.249Z,96340.63
2023-01-22T10:16:12.499Z,96338.41
2023-01-22T10:18:45.107Z,96340.91
2023-01-22T10:21:31.776Z,96340.50
2023-01-22T10:23:58.871Z,96346.69
2023-01-22T10:26:25.399Z,96368.50
2023-01-22T10:28:54.226Z,96370.28
2023-01-22T10:31:31.878Z,96370.13
2023-01-22T10:34:03.576Z,96361.06
2023-01-22T10:36:30.927Z,96354.06
2023-01-22T10:39:10.036Z,96361.34
2023-01-22T10:41:36.512Z,96364.91
2023-01-22T10:44:14.977Z,96357.88
2023-01-22T10:46:41.522Z,96358.00
2023-01-22T10:49:28.213Z,96361.31
2023-01-22T10:51:58.704Z,96364.91
2023-01-22T10:54:30.034Z,96364.63
2023-01-22T10:57:05.553Z,96364.22
2023-01-22T10:59:32.163Z,96369.00
2023-01-22T11:01:59.727Z,96368.69
2023-01-22T11:04:28.202Z,96358.00
2023-01-22T11:06:58.059Z,96355.66
2023-01-22T11:09:27.051Z,96364.31
2023-01-22T11:11:59.848Z,96354.69
2023-01-22T11:14:29.698Z,96351.25
2023-01-22T11:16:58.528Z,96362.94
2023-01-22T11:19:36.837Z,96349.72
2023-01-22T11:22:06.344Z,96359.56
2023-01-22T11:24:47.212Z,96354.59
2023-01-22T11:27:25.593Z,96357.59
2023-01-22T11:30:01.405Z,96364.47
2023-01-22T11:32:46.042Z,96360.09
2023-01-22T11:35:18.007Z,96367.78
2023-01-22T11:38:10.698Z,96373.56
2023-01-22T11:40:48.757Z,96365.63
2023-01-22T11:43:16.323Z,96371.94
2023-01-22T11:46:01.558Z,96374.41
2023-01-22T11:48:37.839Z,96363.41
2023-01-22T11:51:11.845Z,96375.50
2023-01-22T11:53:38.295Z,96373.03
2023-01-22T11:56:20.434Z,96356.56
2023-01-22T11:59:00.157Z,96354.09
2023-01-22T12:01:39.136Z,96361.25
2023-01-22T12:04:24.500Z,96356.16
2023-01-22T12:07:09.896Z,96372.50
2023-01-22T12:09:45.515Z,96374.16
2023-01-22T12:12:11.925Z,96397.75
2023-01-22T12:14:38.469Z,96379.41
2023-01-22T12:17:34.189Z,96387.78
2023-01-22T12:20:19.315Z,96391.38
2023-01-22T12:23:09.049Z,96389.38
2023-01-22T12:25:44.978Z,96388.94
2023-01-22T12:28:17.086Z,96389.75
2023-01-22T12:31:01.655Z,96399.63
2023-01-22T12:33:34.377Z,96392.47
2023-01-22T12:36:02.593Z,96393.81
2023-01-22T12:38:32.142Z,96392.09
2023-01-22T12:41:01.683Z,96403.09
2023-01-22T12:43:40.420Z,96392.00
2023-01-22T12:46:06.979Z,96389.75
2023-01-22T12:48:45.652Z,96398.94
2023-01-22T12:51:24.375Z,96389.16
2023-01-22T12:53:50.826Z,96386.25
2023-01-22T12:56:27.915Z,96386.78
2023-01-22T12:58:57.879Z,96378.50
2023-01-22T13:01:31.000Z,96398.81
2023-01-22T13:03:59.414Z,96407.75
2023-01-22T13:06:39.272Z,96408.13
2023-01-22T13:09:07.196Z,96412.75
2023-01-22T13:11:38.531Z,96414.94
2023-01-22T13:14:28.378Z,96415.47
2023-01-22T13:16:56.512Z,96421.34
2023-01-22T13:19:25.772Z,96426.31
2023-01-22T13:21:52.768Z,96430.25
2023-01-22T13:24:20.960Z,96432.88
2023-01-22T13:27:00.013Z,96441.41
2023-01-22T13:29:28.763Z,96428.16
2023-01-22T13:31:57.555Z,96437.16
2023-01-22T13:34:24.423Z,96435.41
2023-01-22T13:36:51.404Z,96439.56
2023-01-22T13:39:17.870Z,96446.28
2023-01-22T13:41:47.660Z,96451.13
2023-01-22T13:44:19.600Z,96451.66
2023-01-22T13:46:46.445Z,96456.81
2023-01-22T13:49:42.191Z,96455.28
2023-01-22T13:52:13.751Z,96446.56
2023-01-22T13:54:44.724Z,96463.88
2023-01-22T13:57:21.223Z,96458.34
2023-01-22T13:59:58.442Z,96469.19
2023-01-22T14:02:32.077Z,96474.31
2023-01-22T14:04:58.811Z,96473.16
2023-01-22T14:07:25.369Z,96476.47
2023-01-22T14:09:52.360Z,96480.06
2023-01-22T14:12:26.861Z,96485.31
2023-01-22T14:14:54.163Z,96485.56
2023-01-22T14:17:38.641Z,96487.50
2023-01-22T14:20:05.282Z,96482.28
2023-01-22T14:22:31.758Z,96483.94
2023-01-22T14:24:58.198Z,96475.78
2023-01-22T14:27:29.840Z,96486.94
2023-01-22T14:29:56.391Z,96488.56
2023-01-22T14:32:23.902Z,96486.63
2023-01-22T14:34:50.339Z,96491.03
2023-01-22T14:37:17.635Z,96496.41
2023-01-22T14:39:44.075Z,96497.09
2023-01-22T14:42:10.622Z,96499.56
2023-01-22T14:44:37.126Z,96504.81
2023-01-22T14:47:04.260Z,96504.00
2023-01-22T14:49:30.820Z,96518.41
2023-01-22T14:51:57.517Z,96516.63
2023-01-22T14:54:25.143Z,96523.50
2023-01-22T14:56:51.606Z,96529.56
2023-01-22T14:59:20.595Z,96525.31
2023-01-22T15:01:47.298Z,96528.75
2023-01-22T15:04:13.769Z,96528.88
2023-01-22T15:06:40.211Z,96531.19
2023-01-22T15:09:07.003Z,96526.81
2023-01-22T15:11:33.462Z,96530.09
2023-01-22T15:13:59.902Z,96529.28
2023-01-22T15:16:26.446Z,96532.88
2023-01-22T15:18:56.476Z,96539.22
2023-01-22T15:21:23.119Z,96537.88
2023-01-22T15:23:50.198Z,96548.75
2023-01-22T15:26:27.441Z,96548.38
2023-01-22T15:28:54.757Z,96553.38
2023-01-22T15:31:21.287Z,96555.44
2023-01-22T15:33:47.908Z,96557.78
2023-01-22T15:36:14.426Z,96545.91
2023-01-22T15:38:40.925Z,96560.78
2023-01-22T15:41:17.171Z,96561.38
2023-01-22T15:43:43.593Z,96563.44
2023-01-22T15:46:10.368Z,96569.38
2023-01-22T15:48:38.139Z,96572.53
2023-01-22T15:51:08.725Z,96578.44
2023-01-22T15:53:35.715Z,96572.81
2023-01-22T15:56:02.523Z,96581.47
2023-01-22T15:58:29.363Z,96575.59
2023-01-22T16:00:57.374Z,96576.81
2023-01-22T16:03:23.952Z,96584.53
2023-01-22T16:05:50.399Z,96591.13
2023-01-22T16:08:16.907Z,96598.53
2023-01-22T16:10:43.318Z,96607.88
2023-01-22T16:13:09.785Z,96611.47
2023-01-22T16:15:36.208Z,96613.13
2023-01-22T16:18:02.678Z,96619.22
2023-01-22T16:20:29.229Z,96625.31
2023-01-22T16:22:55.658Z,96620.09
2023-01-22T16:25:22.101Z,96639.38
2023-01-22T16:27:48.517Z,96641.59
2023-01-22T16:30:15.047Z,96642.47
2023-01-22T16:32:43.455Z,96649.91
2023-01-22T16:35:10.304Z,96660.50
2023-01-22T16:37:36.995Z,96657.06
2023-01-22T16:40:04.494Z,96653.50
2023-01-22T16:42:31.297Z,96661.22
2023-01-22T16:44:57.762Z,96656.25
2023-01-22T16:47:24.202Z,96653.91
2023-01-22T16:49:50.716Z,96651.81
2023-01-22T16:52:22.807Z,96654.88
2023-01-22T16:54:49.740Z,96662.03
2023-01-22T16:57:16.252Z,96661.72
2023-01-22T16:59:42.782Z,96669.72
2023-01-22T17:02:14.194Z,96663.94
2023-01-22T17:04:40.696Z,96666.00
2023-01-22T17:07:07.137Z,96667.50
2023-01-22T17:09:35.849Z,96671.38
2023-01-22T17:12:04.005Z,96671.63
2023-01-22T17:14:31.446Z,96671.22
2023-01-22T17:16:58.474Z,96674.94
2023-01-22T17:19:25.000Z,96680.16
2023-01-22T17:21:54.614Z,96673.56
2023-01-22T17:24:22.433Z,96678.53
2023-01-22T17:26:52.022Z,96683.75
2023-01-22T17:29:18.824Z,96673.84
2023-01-22T17:31:45.388Z,96681.28
2023-01-22T17:34:11.922Z,96679.63
2023-01-22T17:36:39.019Z,96679.94
2023-01-22T17:39:05.619Z,96682.38
2023-01-22T17:41:32.715Z,96685.16
2023-01-22T17:43:59.663Z,96695.75
2023-01-22T17:46:28.872Z,96700.16
2023-01-22T17:48:55.929Z,96704.66
2023-01-22T17:51:23.852Z,96705.50
2023-01-22T17:53:51.600Z,96710.44
2023-01-22T17:56:19.685Z,96706.34
2023-01-22T17:58:47.780Z,96709.50
2023-01-22T18:01:17.962Z,96715.97
2023-01-22T18:03:44.900Z,96715.97
2023-01-22T18:06:11.714Z,96717.75
2023-01-22T18:08:39.549Z,96711.97
2023-01-22T18:11:10.153Z,96717.31
2023-01-22T18:13:38.054Z,96720.09
2023-01-22T18:16:05.491Z,96715.13
2023-01-22T18:18:32.131Z,96719.25
2023-01-22T18:20:58.601Z,96718.44
2023-01-22T18:23:25.153Z,96722.28
2023-01-22T18:25:56.272Z,96726.69
2023-01-22T18:28:24.071Z,96731.22
2023-01-22T18:30:50.623Z,96740.88
2023-01-22T18:33:18.890Z,96740.16
2023-01-22T18:35:46.746Z,96744.97
2023-01-22T18:38:13.600Z,96752.44
2023-01-22T18:40:40.104Z,96755.84
2023-01-22T18:43:09.040Z,96764.38
2023-01-22T18:45:42.563Z,96761.47
2023-01-22T18:48:11.773Z,96760.38
2023-01-22T18:50:38.656Z,96773.03
2023-01-22T18:53:05.560Z,96772.63
2023-01-22T18:55:32.111Z,96774.00
2023-01-22T18:58:08.660Z,96779.25
2023-01-22T19:00:37.229Z,96780.34
2023-01-22T19:03:03.862Z,96785.16
2023-01-22T19:05:30.394Z,96783.50
2023-01-22T19:07:56.894Z,96777.03
2023-01-22T19:10:23.982Z,96771.53
2023-01-22T19:12:50.480Z,96780.22
2023-01-22T19:15:17.489Z,96787.34
2023-01-22T19:17:44.127Z,96783.91
2023-01-22T19:20:12.754Z,96787.22
2023-01-22T19:22:39.231Z,96781.72
2023-01-22T19:25:06.847Z,96798.78
2023-01-22T19:27:33.337Z,96804.56
2023-01-22T19:30:00.666Z,96808.69
2023-01-22T19:32:28.695Z,96808.41
2023-01-22T19:34:55.355Z,96810.22
2023-01-22T19:37:22.028Z,96815.44
2023-01-22T19:39:48.453Z,96816.13
2023-01-22T19:42:15.825Z,96812.56
2023-01-22T19:44:43.021Z,96807.59
2023-01-22T19:47:10.929Z,96813.78
2023-01-22T19:49:37.492Z,96815.56
2023-01-22T19:52:04.102Z,96820.69
2023-01-22T19:54:30.754Z,96827.53
2023-01-22T19:56:57.322Z,96818.06
2023-01-22T19:59:24.192Z,96826.84
2023-01-22T20:01:51.176Z,96818.88
2023-01-22T20:04:21.626Z,96818.59
2023-01-22T20:06:51.195Z,96808.81
2023-01-22T20:09:21.462Z,96816.44
2023-01-22T20:11:54.988Z,96821.09
2023-01-22T20:14:31.566Z,96819.69
2023-01-22T20:16:59.030Z,96820.25
2023-01-22T20:19:25.890Z,96825.03
2023-01-22T20:21:52.399Z,96820.22
2023-01-22T20:24:18.924Z,96815.41
2023-01-22T20:26:45.401Z,96827.06
2023-01-22T20:29:12.890Z,96831.34
2023-01-22T20:31:39.786Z,96825.44
2023-01-22T20:34:06.491Z,96819.50
2023-01-22T20:36:33.114Z,96818.28
2023-01-22T20:39:00.780Z,96814.00
2023-01-22T20:41:27.549Z,96819.09
2023-01-22T20:43:54.686Z,96825.28
2023-01-22T20:46:22.611Z,96823.75
2023-01-22T20:48:49.786Z,96824.72
2023-01-22T20:51:24.521Z,96830.94
2023-01-22T20:53:52.059Z,96824.47
2023-01-22T20:56:27.364Z,96824.03
2023-01-22T20:58:57.977Z,96832.00
2023-01-22T21:01:24.744Z,96820.47
2023-01-22T21:03:51.343Z,96835.88
2023-01-22T21:06:18.770Z,96836.16
2023-01-22T21:08:48.172Z,96850.16
2023-01-22T21:11:17.971Z,96846.59
2023-01-22T21:13:44.715Z,96855.53
2023-01-22T21:16:12.845Z,96865.28
2023-01-22T21:18:41.526Z,96861.16
2023-01-22T21:21:08.973Z,96863.91
2023-01-22T21:23:36.226Z,96866.91
2023-01-22T21:26:03.718Z,96865.44
2023-01-22T21:28:30.224Z,96867.59
2023-01-22T21:30:56.691Z,96862.81
2023-01-22T21:33:23.333Z,96855.81
2023-01-22T21:35:49.961Z,96848.78
2023-01-22T21:38:16.432Z,96842.09
2023-01-22T21:40:42.953Z,96836.03
2023-01-22T21:43:30.804Z,96839.22
2023-01-22T21:46:17.149Z,96835.66
2023-01-22T21:48:43.583Z,96844.53
2023-01-22T21:51:10.059Z,96839.72
2023-01-22T21:53:36.539Z,96843.69
2023-01-22T21:56:03.012Z,96846.09
2023-01-22T21:58:29.436Z,96852.09
2023-01-22T22:01:02.593Z,96866.94
2023-01-22T22:03:32.740Z,96871.06
2023-01-22T22:06:02.347Z,96879.47
2023-01-22T22:08:29.091Z,96882.41
2023-01-22T22:10:55.755Z,96881.69
2023-01-22T22:13:22.197Z,96882.75
2023-01-22T22:15:48.663Z,96884.03
2023-01-22T22:18:15.427Z,96895.91
2023-01-22T22:20:41.916Z,96895.63
2023-01-22T22:23:08.348Z,96895.63
2023-01-22T22:25:34.959Z,96903.19
2023-01-22T22:28:01.386Z,96897.03
2023-01-22T22:30:27.954Z,96898.41
2023-01-22T22:32:58.860Z,96890.44
2023-01-22T22:35:25.420Z,96895.31
2023-01-22T22:37:51.835Z,96897.06
2023-01-22T22:40:19.484Z,96894.88
2023-01-22T22:42:46.078Z,96896.50
2023-01-22T22:45:12.580Z,96889.94
2023-01-22T22:47:39.023Z,96901.22
2023-01-22T22:50:06.033Z,96902.50
2023-01-22T22:52:35.574Z,96903.47
2023-01-22T22:55:02.077Z,96899.66
2023-01-22T22:57:28.550Z,96906.06
2023-01-22T22:59:54.991Z,96910.97
2023-01-22T23:02:21.775Z,96913.00
2023-01-22T23:04:48.353Z,96906.34
2023-01-22T23:07:14.863Z,96909.25
2023-01-22T23:09:41.313Z,96913.16
2023-01-22T23:12:07.775Z,96912.91
2023-01-22T23:14:34.244Z,96916.91
2023-01-22T23:17:00.970Z,96915.00
2023-01-22T23:19:27.557Z,96929.31
2023-01-22T23:21:58.289Z,96924.66
2023-01-22T23:24:25.102Z,96926.91
2023-01-22T23:26:51.555Z,96925.38
2023-01-22T23:29:20.347Z,96926.34
2023-01-22T23:31:46.857Z,96924.22
2023-01-22T23:34:14.727Z,96918.13
2023-01-22T23:36:43.706Z,96919.38
2023-01-22T23:39:10.544Z,96927.47
2023-01-22T23:41:37.070Z,96932.09
2023-01-22T23:44:04.124Z,96931.31
2023-01-22T23:46:31.399Z,96932.53
2023-01-22T23:48:59.127Z,96933.81
2023-01-22T23:51:26.555Z,96937.94
2023-01-22T23:53:53.231Z,96933.69
2023-01-22T23:56:21.029Z,96933.28
2023-01-22T23:58:47.490Z,96940.78
